METAR

METAR RPLL (MNL) – NINOY AQUINO INTERNATIONAL AIRPORT (MANILA INTERNATIONAL AIRPORT)
RPLL 221000Z VRB02KT 9999 FEW023 SCT100 29/24 Q1007 NOSIG RMK A2974
RPLL 220900Z 12005KT 070V150 9999 FEW025 SCT300 30/24 Q1006 NOSIG RMK A2971
RPLL 220800Z 11006KT 080V150 9999 FEW023 SCT300 30/24 Q1006 NOSIG RMK A2971
RPLL 220700Z 10007KT 060V140 9999 FEW023 SCT300 31/24 Q1006 NOSIG RMK A2971
RPLL 220600Z 07004KT 310V120 9999 FEW023 SCT300 30/25 Q1007 NOSIG RMK A2974
RPLL 220500Z 11005KT 070V160 9999 FEW023 BKN100 29/24 Q1009 NOSIG RMK A2980
RPLL 220400Z 16004KT 070V220 9999 -RA SCT022 BKN090 28/24 Q1010 NOSIG RMK A2983
RPLL 220300Z 13004KT 090V200 9999 -SHRA SCT022 OVC090 28/25 Q1011 NOSIG RMK A2985
RPLL 220238Z 13004KT 070V200 9999 -SHRA SCT022 OVC090 28/24 Q1011 NOSIG RMK A2985
RPLL 220200Z 13003KT 070V210 9999 SCT023 BKN100 28/25 Q1011 NOSIG RMK A2985
RPLL 220100Z VRB03KT 9999 SCT023 BKN100 28/25 Q1011 NOSIG RMK A2985
RPLL 220000Z 09003KT 070V150 8000 SCT023 BKN100 27/25 Q1010 NOSIG RMK A2983
RPLL 212300Z VRB02KT 9999 SCT023 BKN100 26/25 Q1010 NOSIG RMK A2983
RPLL 212200Z VRB01KT 9999 SCT023 OVC090 26/24 Q1009 NOSIG RMK A2980
RPLL 212100Z 20002KT 9999 SCT023 OVC090 26/25 Q1008 RESHRA NOSIG RMK A2977
RPLL 212000Z 00000KT 9999 -SHRA SCT023 OVC090 24/25 Q1008 TEMPO 8000 -RA RMK A2977
RPLL 211900Z VRB02KT 9999 SCT025 OVC090 27/25 Q1008 NOSIG RMK A2977
RPLL 211800Z VRB01KT 9999 SCT025 BKN090 27/25 Q1009 NOSIG RMK A2980
RPLL 211700Z 14003KT 080V230 9999 FEW025 BKN090 27/25 Q1009 NOSIG RMK A2980
RPLL 211600Z VRB02KT 9999 FEW025 OVC080 27/25 Q1010 NOSIG RMK A2983
RPLL 211500Z 18003KT 130V210 9999 FEW025 BKN100 27/25 Q1010 NOSIG RMK A2983
RPLL 211400Z 13005KT 100V170 9999 FEW023CB FEW025 BKN100 28/24 Q1009 NOSIG RMK A2980 CB LTG NW
RPLL 211200Z 13004KT 090V170 9999 SCT025 BKN090 28/25 Q1009 NOSIG RMK A2980
RPLL 211100Z 12004KT 090V160 9999 FEW025 BKN100 29/25 Q1008 NOSIG RMK A2977
RPLL 210900Z 10003KT 070V0130 9999 SCT023 BKN100 30/25 Q1007 NOSIG RMK A2974
RPLL 210800Z 11005KT 060V160 9999 SCT023 BKN100 31/25 Q1006 NOSIG RMK A2971
RPLL 210700Z 1105KT 070V180 9999 SCT023 BKN100 31/25 Q1007 NOSIG RMK A2974
RPLL 210600Z 12994KT 060V190 9999 SCT023 BKN100 31/25 Q1007 RMK A2974
RPLL 210500Z VBR05KT 9999 SCT023 BKN100 31/25 Q1008 NOSIG RMK A2977
RPLL 210400Z 13006KT 060V200 9000 SCT023 BKN100 31/24 Q1009 NOSIG RMK A2980
RPLL 210300Z VRB04KT 9999 SCT023 BKN100 31/24 Q1010 NOSIG RMK A2983
RPLL 210200Z VRB02KT 9000 SCT023 BKN100 28/25 Q1011 NOSIG RMK A2985
RPLL 210100Z VRB01KT 9999 SCT023 BKN100 27/25 Q1011 NOSIG RMK A2985
RPLL 210000Z VRB01KT 9999 SCT023 OVC090 26/24 Q1010 NOSIG RMK A2983
RPLL 202300Z 36003KT 340V060 9999 SCT023 BKN090 25/24 Q1010 NOSIG RMK A2983
RPLL 202200Z 00000KT 9999 SCT023 OVC090 25/24 Q1009 RERA NOSIG RMK A2980
RPLL 202100Z 00000KT 9999 -RA SCT023 OVC090 25/24 Q1009 NOSIG RMK A2980
RPLL 202000Z VRB01KT 9999 SCT025 OVC100 25/24 Q1008 RERA NOSIG RMK A2977
RPLL 201900Z 00000KT 9000 -RA SCT023 OVC090 25/24 Q1008 NOSIG RMK A2977

RPVM (CEB) – MACTAN-CEBU INTERNATIONAL AIRPORT
RPVM 221000Z VRB02KT 9999 FEW020 BKN100 28/25 Q1010 RMK A2983
RPVM 220900Z 08004KT 9999 FEW020 BKN100 28/25 Q1009 RMK A2980
RPVM 220800Z 07006KT 9999 FEW020 BKN300 28/24 Q1009 RMK A2980
RPVM 220700Z VRB04KT 9999 FEW020 BKN250 30/25 Q1009 RMK A2980
RPVM 220600Z 06003KT 9999 FEW020 BKN100 28/24 Q1009 RMK A2980
RPVM 220500Z 04004KT 9999 FEW020 BKN100 28/24 Q1010 RMK A2983
RPVM 220400Z 33007KT 9999 FEW018CB BKN100 28/23 Q1011 RMK A2985 CB SE-SW/W-N
RPVM 220300Z 12006KT 9999 FEW018CB BKN100 29/25 Q1012 RMK A2988 CB S-NW
RPVM 220200Z 04006KT 9999 FEW018CB SCT100 30/25 Q1012 RMK A2988 CB SW-NW
RPVM 220100Z 03005KT 9999 FEW018CB SCT100 28/25 Q1012 RMK A2988 CB NE
RPVM 220000Z 36003KT 9999 FEW018CB BKN100 28/25 Q1012 RMK A2988 CB NE
RPVM 212300Z 00000KT 9999 FEW018CB BKN100 26/24 Q1011 RMK A2983 CB NW
RPVM 212200Z VRB02KT 9999 FEW018CB BKN100 26/24 Q1010 RMK A2983 CB NE
RPVM 212100Z VRB02KT 9999 FEW020 BKN100 26/24 Q1010 RMK A2983
RPVM 212000Z 32003KT 9999 FEW020 BKN100 26/25 Q1009 RMK A2980
RPVM 211900Z 28003KT 9999 FEW020 BKN100 26/25 Q1009 RMK A2980
RPVM 211800Z VRB02KT 9999 FEW020 BKN100 26/25 Q1009 RMK A2980
RPVM 211700Z 31002KT 9999 FEW020 SCT100 26/25 Q1010 RMK A2983
RPVM 211600Z 26003KT 9999 FEW020 BKN100 27/25 Q1011 RMK A2985
RPVM 211500Z 20002KT 9999 FEW020 BKN100 27/25 Q1011 RMK A2985
RPVM 211400Z 17003KT 9999 FEW020 BKN100 27/24 Q1011 RMK A2985
RPVM 211200Z 00000KT 9999 FEW020 BKN100 27/24 Q1010 RMK A2983
RPVM 211100Z 24005KT 9999 FEW020 BKN100 27/23 Q1010 RMK A2983
RPVM 210900Z 03003KT 9999 SCT018CB BKN100 282 Q1009 RMK A2980 CB SW-W
RPVM 210800Z 05005KT 9999 SCT018CB BKN100 29/24 Q1008 RMK A2977 CB S
RPVM 210700Z 06007KT 9999 FEW020 SCT100 30/25 Q1007 RMK A2974
RPVM 210600Z 06005KT 030V110 9999 FEW020 SCT100 SCT300 29/23 Q1008 RMK A2977
RPVM 210500Z 06005KT 030V090 9999 FEW020 BKN300 29/24 Q1009 RMK A2980
RPVM 210400Z 05006KT 010V100 9999 FEW020 BKN300 29/24 Q1010 RMK A2983
RPVM 210300Z 06006KT 030V100 9999 FEW020 SCT300 29/25 Q1010 RMK A2983
RPVM 210200Z 06005KT 9999 FEW020 SCT300 27/25 Q1011 RMK A2985
RPVM 210100Z 02005KT 330V080 9999 FEW020 SCT100 27/25 Q1012 RERA RMK A2988
RPVM 210000Z VRB01KT 9999 -RA FEW020 OVC080 26/25 Q1012 RMK A2988
RPVM 202300Z VRB02KT 9999 -RA FEW020 OVC080 26/25 Q1011 RMK A2985
RPVM 202200Z 21002KT 9999 -RA FEW020 OVC080 26/24 Q1010 RMK A2983
RPVM 202100Z 24004KT 9999 -RA FEW020 OVC080 25/24 Q1010 RMK A2983
RPVM 202000Z 21003KT 9999 FEW020 OVC090 25/24 Q1009 RMK A2980
RPVM 201900Z 23004KT 9999 FEW020 OVC090 25/24 Q1009 RMK A2980

RPLC (CRK) – CLARK INTERNATIONAL AIRPORT
RPLC 221000Z 20004KT 7000 SCT020 BKN100 28/24 Q1008 NOSIG RMK A2977
RPLC 220900Z 19012KT 8000 SCT020 BKN300 30/23 Q1007 NOSIG RMK A2974
RPLC 220800Z 14006KT 8000 SCT020 BKN300 32/23 Q1007 NOSIG RMK A2974
RPLC 220700Z 17008KT 8000 SCT020 BKN100 30/24 Q1007 NOSIG RMK A2974
RPLC 220600Z 16010KT 7000 SCT020 BKN100 30/25 Q1008 NOSIG RMK A2977
RPLC 220500Z 18014KT 7000 SCT020 BKN100 29/25 Q1009 NOSIG RMK A2980
RPLC 220400Z 18004KT 7000 SCT020 BKN100 29/24 Q1011 NOSIG RMK A2985
RPLC 220300Z 18004KT 7000 SCT020 BKN100 28/24 Q1011 NOSIG RMK A2985
RPLC 220200Z 14002KT 7000 SCT020 BKN100 28/24 Q1012 NOSIG RMK A2988
RPLC 220100Z 18002KT 7000 SCT020 BKN100 26/24 Q1012 NOSIG RMK A2988
RPLC 220000Z 18002KT 7000 SCT020 BKN100 25/24 Q1012 RERA RMK A2988
RPLC 212300Z 32002KT 5000 -RA SCT020 BKN100 25/24 Q1011 NOSIG RMK A2985
RPLC 212200Z 36002KT 5000 -RA SCT020 OVC100 25/24 Q1010 NOSIG RMK A2983
RPLC 212100Z 20004KT 5000 -RA SCT020 OVC100 25/24 Q1009 NOSIG RMK A2980
RPLC 212000Z 22004KT 7000 SCT020 OVC100 25/24 Q1009 NOSIG RMK A2980
RPLC 211900Z 02002KT 7000 SCT020 OVC100 25/24 Q1009 NOSIG RMK A2980
RPLC 211800Z 32002KT 7000 SCT020 BKN100 25/24 Q1009 NOSIG RMK A2980
RPLC 211700Z 34004KT 7000 SCT020 BKN100 25/24 Q1010 NOSIG RMK A2983
RPLC 211600Z 32004KT 7000 SCT020 OVC100 25/24 Q1011 RERA RMK A2985
RPLC 211500Z 19004KT 6000 RA SCT020 OVC090 25/24 Q1011 RMK A2985
RPLC 211300Z 27002KT 9000 SCT020 BKN100 27/24 Q1011 NOSIG RMK A2985
RPLC 211200Z 34004KT 9000 SCT020 BKN100 27/24 Q1010 NOSIG RMK A2983
RPLC 210800Z 34004KT 9000 SCT020 BKN100 29/24 Q1007 RERA NOSIG RMK A2974
RPLC 210500Z 18020KT 9000 SCT020 BKN100 29/24 Q1009 NOSIG RMK A2980
RPLC 210400Z 18002KT 9000 SCT020 BKN100 29/24 Q1011 NOSIG RMK A2985
RPLC 210300Z 07002KT 9000 SCT020 OVC100 27/24 Q1011 RERA RMK A2985
RPLC 210200Z 36002KT 8000 -RA SCT018 OVC090 26/24 Q1012 RMK A2988
RPLC 210100Z 34002KT 8000 -RA SCT018 OVC090 25/24 Q1012 RMK A2988
RPLC 210000Z 25002KT 8000 -RA SCT018 OVC090 25/23 Q1012 NOSIG RMK A2988
RPLC 202300Z 32002KT 8000 -RA SCT018 OVC090 24/23 Q1011 NOSIG RMK A2985
RPLC 202200Z 25002KT 8000 -RA SCT018 OVC090 24/23 Q1011 NOSIG RMK A2985
RPLC 202100Z 20002KT 8000 RA SCT018 OVC090 25/23 Q1010 NOSIG RMK A2983
RPLC 202000Z 25004KT 8000 -RA SCT018 OVC090 25/23 Q1010 NOSIG RMK A2983
RPLC 201900Z 18004KT 8000 -RA SCT018 OVC100 25/23 Q1010 NOSIG RMK A2983

RPLB (SFS) – SUBIC BAY INTERNATIONAL AIRPORT
RPLB 221000Z 22008KT 9999 FEW020 SCT080 BKN300 28/24 Q1008 RMK A2977
RPLB 220900Z VRB02KT 9999 FEW020 SCT080 BKN300 29/24 Q1007 RMK A2974
RPLB 220800Z 08009KT 9999 FEW020 SCT080 BKN300 29/24 Q1007 RMK A2974
RPLB 220700Z VRB03KT 9999 FEW020 SCT080 BKN300 29/25 Q1006 RMK A2971
RPLB 220600Z VRB03KT 9999 FEW020 SCT080 BKN300 29/24 Q1007 RMK A2974
RPLB 220500Z 22006KT 9999 SCT020 BKN080 28/24 Q1009 RMK A2980
RPLB 220400Z 23003KT 210V280 9999 SCT020 BKN080 28/24 Q1011 RMK A2985
RPLB 220300Z 07005KT 030V100 9999 FEW020 BKN080 28/25 Q1011 RMK A2985
RPLB 220200Z 06006KT 9999 SCT020 BKN080 28/25 Q1012 RMK A2988
RPLB 220100Z 07005KT 040V100 9999 SCT020 BKN080 27/25 Q1012 RMK A2988
RPLB 220000Z 05004KT 020V090 9999 SCT020 BKN080 25/24 Q1011 RMK A2985
RPLB 212300Z 06004KT 9000 SCT020 BKN080 24/23 Q1010 RMK A2983
RPLB 212200Z VRB02KT 9000 SCT020 BKN080 24/23 Q1010 RMK A2983
RPLB 212100Z VRB02KT 9000 -RA SCT020 BKN080 24/23 Q1009 RMK A2980
RPLB 212000Z 06003KT 9000 -RA SCT020 BKN080 24/23 Q1009 RMK A2980
RPLB 211900Z 12004KT 6000 +TSRA FEW018CB SCT020 OVC070 24/23 Q1009 RMK A2980 CB/OCNL TS OHD
RPLB 211800Z 19006KT 8000 -TSRA FEW018CB SCT020 BKN080 25/24 Q1010 RMK A2983 CB/TS OCNL SE
RPLB 211700Z VRB02KT 9999 FEW020 BKN080 25/24 Q1010 NOSIG RMK A2983
RPLB 211600Z 03003KT 350V050 9999 SCT020 BKN080 25/24 Q1010 NOSIG RMK A2983
RPLB 211500Z 03004KT 350V050 9999 FEW018CB SCT020 BKN080 25/24 Q1010 RETSRA RMK A2983 CB/LTG OCNL N
RPLB 211400Z 19007KT 150V210 8000 -TSRA FEW018CB SCT020 BKN080 26/24 Q1010 RMK A2980
RPLB 211200Z 16003KT 9999 TS FEW018CB SCT020 BKN080 27/25 Q1010 RMK A2980 CB S
RPLB 211100Z 19004KT 140V230 9999 SCT020 BKN080 28/25 Q1009 RMK A2980
RPLB 210900Z 08004KT 040V110 9000 -RA SCT020 BKN080 28/25 Q1008 RMK A2977
RPLB 210800Z VRB04KT 9999 -SHRA FEW018CB SCT020 BKN080 30/24 Q1007 RMK A2974 CB OHD
RPLB 210700Z 06007KT 9999 FEW020 BKN080 31/24 Q1007 RMK A2974
RPLB 210600Z 07008KT 040V100 9999 FEW020 BKN080 30/24 Q1007 RMK A2974
RPLB 210500Z 07010KT 040V100 9999 FEW020 BKN080 RMK A2977
RPLB 210400Z 09009KT 030V100 9999 FEW20 BKN080 29/24 Q1009 RMK A2980
RPLB 210300Z 05009KT 9999 FEW020 BKN080 29/24 Q1010 RMK A2983
RPLB 210200Z 06010KT 9999 FEW020 BKN080 27/24 Q1011 RMK A2985
RPLB 210100Z 05007KT 9999 SCT018 BKN080 26/24 Q1011 RMK A2985
RPLB 210000Z 06009KT 9999 SCT018 BKN080 25/23 Q1011 RERA RMK A2985
RPLB 202300Z 08009KT 8000 -RA SCT018 OVC070 25/23 Q1011 RMK A2985
RPLB 202200Z 09008KT 9000 -RA SCT018 OVC070 25/23 Q1010 RMK A2983
RPLB 202100Z 07007KT 9000 -RA SCT020 BKN080 25/23 Q1009 RMK A2980
RPLB 202000Z 06004KT 9000 -RA SCT020 BKN080 25/23 Q1009 RMK A2980
RPLB 201900Z 03006KT 9000 -RA FEW020 BKN080 25/23 Q1009 RMK A2980

RPLI (LAO) – LAOAG INTERNATIONAL AIRPORT
RPLI 221000Z 32004KT 270V350 9999 FEW018 BKN100 27/25 Q1008 NOSIG RMK A2977
RPLI 220900Z 32006KT 9999 SCT018 BKN100 27/25 Q1008 NOSIG RMK A2977
RPLI 220800Z 30005KT 250V350 9999 SCT018 BKN100 28/25 Q1007 NOSIG RMK A2974
RPLI 220700Z 29006KT 250V340 9999 FEW017CB SCT018 BKN090 28/25 Q1007 RETS NOSIG RMK A2974 CB E
RPLI 220600Z 29005KT 230V020 9999 TS FEW017CB SCT018 BKN090 29/25 Q1008 NOSIG RMK A2977 CB NE-E
RPLI 220500Z 27006KT 220V340 9999 FEW017CB SCT018 BKN090 28/25 Q1008 NOSIG RMK A2977 CB NW
RPLI 220400Z 26005KT 210V310 9999 FEW017CB SCT018 BKN080 28/25 Q1010 NOSIG RMK A2983 CB NW
RPLI 220300Z 26004KT 200V310 9999 FEW018 SCT090 BKN290 29/25 Q1010 NOSIG RMK A2983
RPLI 220200Z 23003KT 190V280 9999 SCT018 BKN090 27/26 Q1011 NOSIG RMK A2985
RPLI 220100Z VRB02KT 8000 FEW018 BKN100 26/25 Q1011 NOSIG RMK A2985
RPLI 220000Z 00000KT 6000 FEW018 BKN100 25/25 Q1010 NOSIG RMK A2983
RPLI 212300Z 14002KT 9999 FEW018 OVC080 24/24 Q1009 NOSIG RMK A2980
RPLI 212200Z 00000KT 8000 FEW018 BKN100 24/24 Q1009 NOSIG RMK A2980
RPLI 212100Z 11003KT 080V150 8000 FEW018 BKN100 24/24 Q1008 NOSIG RMK A2977
RPLI 211800Z 11003KT 8000 FEW018 BKN100 24/24 Q1009 RERA RMK A2980
RPLI 211500Z VRB01KT 8000 SCT018 OVC100 25/25 Q1010 NOSIG RMK A2983
RPLI 211200Z 09002KT 5000 -RA SCT018 OVC070 25/24 Q1010 RMK A2983
RPLI 211100Z VRB02KT 5000 -RA SCT018 OVC070 24/24 Q1009 RMK A2980
RPLI 210900Z 19003KT 130V230 6000 -SHRA SCT018 BKN070 28/25 Q1008 RMK A2977
RPLI 210800Z 22005KT 200V270 8000 VCSH SCT018 BKN090 28/24 Q1007 NOSIG RMK A2974 VCSH N-SW
RPLI 210700Z 24005KT 197V310 9999 SCT018 BKN090 29/25 Q1007 NOSIG RMK A2974
RPLI 210600Z 23007KT 197V270 9999 FEW018 BKN100 29/24 Q1007 NOSIG RMK A2974
RPLI 210500Z 22006KT 170V260 9999 FEW018 SCT100 BKN290 29/24 Q1008 NOSIG RMK A2977
RPLI 210400Z 23007KT 180V290 9999 FEW018 BKN100 31/23 Q1009 NOSIG RMK A2980
RPLI 210300Z 36006KT 330V030 9999 FEW018 BKN090 28/25 Q1009 NOSIG RMK A2980
RPLI 210100Z 04007KT 9999 SCT018 BKN090 27/24 Q1010 RERA NOSIG RMK A2983
RPLI 210000Z 04006KT 9999 SCT018 BKN090 27/23 Q1009 RERA NOSIG RMK A2980
RPLI 202300Z 03003KT 9999 FEW018 BKN100 26/23 Q1009 NOSIG RMK A2980
RPLI 202200Z VRB01KT 9999 FEW018 BKN100 26/23 Q1009 NOSIG RMK A2980
RPLI 202100Z 04007KT 9999 FEW018 SCT100 27/23 Q1008 NOSIG RMK A2977

RPVP (PPS) – PUERTO PRINCESA INTERNATIONAL AIRPORT
RPVP 221000Z 18006KT 9999 FEW019 SCT250 28/25 Q1008 RMK A2977
RPVP 220900Z 18006KT 9999 FEW019 SCT080 29/24 Q1007 RMK A2974
RPVP 220800Z 27004KT 9999 FEW019 BKN080 29/24 Q1007 RMK A2974
RPVP 220700Z 18006KT 9999 SCT019 29/25 Q1007 RMK A2974
RPVP 220600Z 18006KT 9999 SCT019 BKN080 29/24 Q1008 RMK A2977
RPVP 220500Z 17008KT 9999 SCT019 OVC080 29/25 Q1009 RMK A2980
RPVP 220400Z 12006KT 9999 SCT019 BKN080 BKN240 28/25 Q1010 RMK A2983
RPVP 220300Z 18006KT 9999 SCT019 BKN080 28/25 Q1010 RMK A2983
RPVP 220200Z 18006KT 9999 SCT019 SCT080 BKN240 28/25 Q1010 RMK A2983
RPVP 220100Z 18004KT 9999 SCT019 OVC240 26/25 Q1010 RMK A2983
RPVP 220000Z 27004KT 9999 SCT019 BKN080 OVC240 25/24 Q1009 RERA RMK A2980
RPVP 212300Z 29006KT 9999 -RA SCT019 OVC070 25/24 Q1009 RMK A2980
RPVP 212200Z 32004KT 9999 -RA SCT019 OVC070 25/24 Q1009 RMK A2980
RPVP 212100Z 35004KT 9999 SCT019 OVC080 25/24 Q1009 RMK A2980
RPVP 211800Z 30004KT 9999 SCT019 OVC080 25/24 Q1008 RMK A2977
RPVP 211200Z 02004KT 9999 -SHRA SCT019 OVC080 26/24 Q1009 RMK A2980
RPVP 211100Z 36006KT 9999 SCT019 OVC080 26/24 Q1008 RMK A2977
RPVP 210800Z 18006KT 5000 RA SCT019 OVC080 26/24 Q1006 RMK A2971
RPVP 210500Z 18004KT 9999 FEW019 OVC080 27/25 Q1007 RMK A2974
RPVP 210400Z 18004KT 9999 FEW019 OVC080 28/25 Q1008 RMK A2977
RPVP 210300Z 18004KT 9999 -SHRA FEW019TCU OVC080 28/25 Q1009 RMK A2980 TCU W
RPVP 210200Z 18004KT 9999 -SHRA FEW019 BKN080 28/25 Q1009 RESHRA RMK A2980
RPVP 210100Z 18006KT 9999 FEW018TCU SCT080 28/25 Q1009 RESHRA RMK A2980 TCU NW/NE/S
RPVP 210000Z 14012KT 9999 -SHRA FEW018TCU BKN080 27/25 Q1009 RMK A2980 TCU NW
RPVP 202300Z 09008KT 9999 -SHRA FEW017CB BKN080 27/25 Q1008 RMK A2977 CB E
RPVP 202200Z 09008KT 9999 FEW019 BKN080 27/25 Q1008 RMK A2977
RPVP 202100Z 07008KT 9999 SCT019 SCT080 27/25 Q1008 RMK A2977

RPVD (DGT) – SIBULAN AIRPORT (DUMAGUETE AIRPORT)
RPVD 220900Z 14004KT 9999 VCSH FEW015 BKN070 29/25 Q1008 RMK A2977 VCSH WSW
RPVD 220800Z 11004KT 9999 VCSH FEW015 BKN070 29/25 Q1008 RMK A2977 VCSH WSW
RPVD 220700Z 07004KT 9999 VCSH FEW014CB FEW015 BKN070 29/24 Q1007 RMK A2974 CB/VCSH NE SSE
RPVD 220600Z 04004KT 9999 VCSH FEW014CB FEW015 SCT070 29/25 Q1008 RMK A2977 CB NE VCSH NE/WSW
RPVD 220500Z 04004KT 9999 VCSH FEW014CB SCT015 29/24 Q1009 RMK A2980 CB NE/NW/NNW VCSH NE/SW-NW/NNW
RPVD 220400Z 04004KT 9999 VCSH FEW014CB FEW015 BKN070 30/24 Q1010 RMK A2983 CB N/ESE VCSH SW-NW
RPVD 220300Z 29004KT 9999 VCSH FEW014CB FEW015 BKN070 29/25 Q1011 RMK A2985 CB/VCSH E/ESE
RPVD 220200Z 32006KT 9999 VCSH FEW014CB FEW015 BKN070 29/25 Q1012 RERA RMK A2988 CB/VCSH NNE/ESE
RPVD 220100Z 29004KT 9999 -RA FEW015 BKN070 26/25 Q1011 RMK A2985
RPVD 220000Z 27004KT 9000 -RA FEW015 OVC070 26/25 Q1011 RMK A2985
RPVD 212200Z 00000KT 9999 FEW014CB SCT015 BKN070 26/24 Q1010 RMK A2980 CB E-SE
RPVD 212100Z 00000KT 9999 SCT015 BKN070 26/24 Q1009 RMK A2980
RPVD 211800Z 00000KT 9999 FEW015 BKN070 26/24 Q1008 RMK A2977
RPVD 211500Z 18004KT 9999 FEW015 SCT070 26/24 Q1010 RMK A2983
RPVD 211200Z 00000KT 9999 FEW015 BKN070 27/25 Q1010 RMK A2983
RPVD 211100Z 00000KT 9999 -SHRA SCT015 OVC070 27/25 Q1009 RMK A2980
RPVD 210800Z 07006KT 9999 FEW015 SCT220 29/24 Q1007 RMK A2974
RPVD 210500Z 04004KT 9999 FEW015 SCT070 29/25 Q1008 RMK A2977
RPVD 210400Z 02004KT 9999 VCSH FEW015 BKN070 29/26 Q1009 RMK A2980 VCSH WSW
RPVD 210300Z 04006KT 9999 VCSH SCT015 BKN070 28/26 Q1010 RMK A2983 VCSH WSW-W
RPVD 210200Z 09008KT 9999 VCSH SCT014 OVC070 27/26 Q1010 RERA RMK A2983 VCSH WSW-WNW
RPVD 210100Z 00000KT 9999 -RA SCT014 OVC070 26/25 Q1010 RMK A2983
RPVD 210000Z 00000KT 9999 -SHRA SCT015 OVC070 25/24 Q1010 RMK A2983
RPVD 202300Z 27002KT 9999 FEW015 OVC070 25/24 Q1010 RMK A2983
RPVD 202200Z 27002KT 9999 FEW015 SCT070 OVC220 25/24 Q1009 RMK A2980
RPVD 202100Z 00000KT 9999 FEW015 BKN070 25/24 Q1009 RMK A2980

RPMR (GES) – GENERAL SANTOS INTERNATIONAL AIRPORT
RPMR 220900Z 00000KT 9999 FEW018 BKN080 24/23 Q1010 RMK A2983
RPMR 220800Z 31004KT 9000 -RA FEW018 OVC080 23/23 Q1009 RMK A2980
RPMR 220700Z 36012KT 4000 +RA FEW018 OVC080 22/22 Q1009 RMK A2980
RPMR 220600Z 19008KT 9999 VCSH FEW018CB BKN080 29/24 Q1009 RMK A2980 CB/VCSH N/SSE
RPMR 220500Z 14008KT 9999 FEW018CB BKN080 29/25 Q1009 RMK A2980 CB NW
RPMR 220400Z 06006KT 9000 FEW018 BKN080 30/24 Q1010 RMK A2983
RPMR 220300Z 09006KT 9000 FEW018 BKN080 28/23 Q1011 RMK A2985
RPMR 220200Z 00000KT 8000 FEW018 BKN080 28/23 Q1012 RMK A2988
RPMR 220100Z VRB01KT 7000 FEW018 BKN080 27/23 Q1012 RMK A2988
RPMR 220000Z VRB02KT 9999 FEW018 BKN080 25/23 Q1012 RMK A2988
RPMR 210800Z 35008KT 9999 FEW018CB BKN080 29/24 Q1007 RMK A2974
RPMR 210500Z VBR04KT 9999 FEW018CB BKN080 32/23 Q1008 RMK A2977 CB E
RPMR 210400Z VRB03KT 9999 FEW018 BKN250 32/23 Q1009 RMK A2981
RPMR 210300Z 04003KT 9999 FEW018 BKN080 30/23 Q1010 RMK A2983
RPMR 210100Z 00000KT 9999 FEW018 OVC080 27/24 Q1011 RMK A2985
RPMR 210000Z 11003KT 9000 FEW018 OVC080 26/24 Q1012 RMK A2988

RPMD (DVO) – FRANCISCO BANGOY INTERNATIONAL AIRPORT
RPMD 221000Z VRB02KT 9999 SCT015CB BKN090 OVC260 28/25 Q1010 RMK A2983 CB SE WSW-WNW
RPMD 220900Z VRB02KT 9999 FEW015CB BKN090 BKN290 28/25 Q1009 RMK A2980 CB E WNW-NNW
RPMD 220800Z 16005KT 110V190 9999 FEW015CB BKN090 BKN290 29/25 Q1008 RMK A2977 CB WSW WNW NNW
RPMD 220700Z 00000KT 9999 FEW015CB BKN090 BKN260 29/25 Q1008 RMK A2977 CB NE NW
RPMD 220600Z 16006KT 130V200 9999 VCSH SCT015CB SCT090 BKN290 29/24 Q1008 RESHRA RMK A2977 CB N-SE VCSH E-SE
RPMD 220500Z 17006KT 140V210 9999 -SHRA SCT015CB SCT090 BKN290 30/25 Q1009 RMK A2980 CB NE-SE
RPMD 220400Z VRB02KT 9999 FEW016TCU SCT090 BKN260 29/25 Q1010 RMK A2983 TCU W
RPMD 220300Z 36003KT 310V120 9999 FEW015 BKN090 OVC260 28/25 Q1011 RMK A2985
RPMD 220200Z VRB02KT 9999 VCSH SCT015 BKN090 OVC260 27/26 Q1012 RMK A2988 VCSH SW
RPMD 220100Z 01004KT 330V040 9999 VCSH SCT015 BKN090 OVC260 27/26 Q1012 RMK A2988 VCSH SE
RPMD 220000Z 36003KT 300V040 9999 VCSH SCT015 BKN090 BKN290 26/26 Q1012 RMK A2988 VCSH SE-S
RPMD 212300Z 01003KT 340V040 9999 FEW016 SCT090 BKN290 25/25 Q1011 RMK A2985
RPMD 212200Z VRB02KT 9999 FEW016 SCT090 BKN290 25/25 Q1010 RMK A2983
RPMD 212100Z VRB02KT 9999 FEW016 SCT290 25/25 Q1009 RMK A2980
RPMD 212000Z VRB02KT 9999 FEW016 SCT090 BKN290 25/25 Q1009 RMK A2980
RPMD 211900Z VRB02KT 9999 FEW016 SCT290 25/25 Q1009 RMK A2980
RPMD 211800Z 02003KT 340V040 9999 FEW016 SCT290 25/25 Q1009 RMK A2980
RPMD 211700Z 03002KT 9999 FEW016 SCT290 25/25 Q1009 RMK A2980
RPMD 211600Z 33003KT 9999 FEW016 26/26 Q1010 RMK A2983
RPMD 211500Z VRB02KT 9999 FEW016 SCT090 BKN260 27/26 Q1011 RMK A2985
RPMD 211400Z 00000KT 9999 SCT016CB SCT090 BKN290 27/25 Q1011 RMK A2985
RPMD 211200Z 24003KT 210V280 9999 FEW016 SCT090 BKN290 27/25 Q1011 RMK A2985
RPMD 211100Z 18002KT 9999 FEW016 SCT290 27/25 Q1010 RMK A2983
RPMD 210900Z 16003KT 130V210 9999 FEW015CB SCT090 30/24 Q1008 RMK A2977 CB NW WSW
RPMD 210800Z 15003KT 110V200 9999 FEW015CB SCT090 BKN260 30/24 Q1007 RMK A2974 CB NW
RPMD 210700Z 12004KT 070V240 9999 SCT015CB SCT090 BKN260 30/24 Q1008 RMK A2977 CB SW NW
RPMD 210600Z 13005KT 090V170 9999 SCT015CB BKN260 30/24 Q1008 RMK A2977 CB SW NW
RPMD 210500Z VRB03KT 9999 FEW015CB BKN260 31/24 Q1008 RMK A2977 CB SSW
RPMD 210400Z VRB04KT 9999 FEW016 BKN260 30/24 Q1010 RMK A2983
RPMD 210300Z VRB03KT 9999 FEW016 SCT090 BKN260 29/24 Q1011 RMK A2985
RPMD 210100Z VRB02KT 9999 FEW016 BKN090 BKN260 27/25 Q1012 RMK A2988
RPMD 210000Z 00000KT 9999 FEW016 BKN090 BKN260 26/25 Q1012 RERA RMK A2988
RPMD 202300Z VRB02KT 9999 -RA SCT015 OVC080 24/24 Q1011 RMK A2985
RPMD 202200Z 28001KT 9999 -RA SCT015 OVC090 24/24 Q1010 RMK A2983
RPMD 202100Z 23003KT 8000 -RA SCT015 OVC080 24/24 Q1010 RMK A2983
RPMD 202000Z 00000KT 8000 -RA SCT015 OVC080 24/24 Q1011 RMK A2985
RPMD 201900Z 10003KT 060V130 8000 -RA SCT015 OVC080 24/24 Q1011 RMK A2985

RPMZ (ZAM) – ZAMBOANGA INTERNATIONAL AIRPORT
RPMZ 221000Z 07006KT 9999 FEW017 BKN090 26/24 Q1009 RMK A2980
RPMZ 220900Z 08008KT 9999 FEW017 BKN090 27/24 Q1009 RMK A2980
RPMZ 220800Z 08006KT 9999 FEW016CB FEW017 BKN090 28/24 Q1008 RMK A2977 CB SW-NW
RPMZ 220700Z 10004KT 070V140 9999 FEW017 BKN090 28/24 Q1008 RMK A2977
RPMZ 220600Z 06005KT 030V100 9999 FEW016CB FEW017 BKN090 28/24 Q1009 RMK A2980 CB NW-NE SE-SW OHD
RPMZ 220500Z 08006KT 040V100 9999 FEW017 BKN090 28/25 Q1010 RERA RMK A2983
RPMZ 220400Z 09006KT 9999 SCT016CB OVC090 27/25 Q1011 RMK A2985 CB NW-NE SE-SW OHD
RPMZ 220300Z 09007KT 9999 -RA FEW016CB OVC090 26/25 Q1012 RMK A2988 CB NW-NE SE-SW OHD
RPMZ 220200Z 08005KT 9999 -SHRA FEW017 OVC090 26/25 Q1012 RMK A2988
RPMZ 220100Z 08004KT 9999 FEW017 BKN090 27/24 Q1012 RMK A2988
RPMZ 220000Z VRB02KT 9999 FEW017 BKN090 27/24 Q1011 RMK A2985
RPMZ 212300Z VRB01KT 9999 FEW016CB FEW017 BKN090 25/24 Q1011 RMK A2985 CB S-SW
RPMZ 212200Z 00000KT 9999 FEW016CB BKN090 25/24 Q1010 RESHRA RMK A2983 CB N-NW E
RPMZ 212100Z 29004KT 9000 -SHRA FEW016CB OVC090 25/23 Q1009 RMK A2980 CB NW S OHD
RPMZ 211800Z 27004KT 9999 FEW017 BKN090 25/23 Q1009 RMK A2980
RPMZ 211500Z 27005KT 240V300 8000 -RA SCT015 OVC080 24/23 Q1011 RMK A2985
RPMZ 211200Z 28011KT 3000 -SHRA SCT016CB OVC090 24/24 Q1010 RMK A2985 CB SW-SE NW OHD
RPMZ 210900Z 33008KT 280V030 9999 +RA SCT017 BKN080 24/24 Q1008 RMK A2977
RPMZ 210800Z 09008KT 9999 -RA SCT017 BKN090 29/25 Q1007 RMK A2974
RPMZ 210700Z 08009KT 060V120 9999 FEW016CB FEW017 BKN090 31/26 Q1007 RMK A2974 CB NW NE S
RPMZ 210600Z 07009KT 9999 FEW016CB FEW017 BKN090 30/25 Q1007 RMK A2974 CB NW-E S OHD
RPMZ 210500Z 08008KT 040V110 9999 FEW016CB FEW017 BKN300 30/26 Q1008 RMK A2977 CB NW-NE OVHD
RPMZ 210400Z 08009KT 9999 FEW016CB FEW017 BKN300 30/25 Q1009 RMK A2980 CB N-NE
RPMZ 210300Z 08008KT 060V120 9999 FEW016CB FEW017 BKN300 31/25 Q1009 RMK A2980 CB E
RPMZ 210200Z 10007KT 060V140 9999 FEW016CB FEW017 BKN300 30/25 Q1010 RMK A2983 CB NE
RPMZ 210100Z 06007KT 9999 FEW017 BKN300 27/25 Q1010 RMK A2983
RPMZ 210000Z 07005KT 9999 FEW016CB FEW017 BKN090 26/25 Q1010 RMK A2983 CB N-NE
RPMZ 202300Z 07006KT 9999 FEW016CB FEW017 BKN090 25/24 Q1010 RMK A2983 CB NE
RPMZ 202200Z 06005KT 9999 FEW017 OVC090 25/24 Q1010 RMK A2983
RPMZ 202100Z 08003KT 060V120 9999 FEW017 OVC090 24/24 Q1009 RMK A2980